• Join FlightAware (Why Join?)
  • Login
  • US Flag 
01:06AM EST


 

Airport Tracker/Info


-or-


 

Live Flight TrackerFlight Track Log ✈ AVN21 ✈ 01-Nov-2013 ✈ YBBN / BNE - NVVV / VLI

Flight Track Log - Related Links

Times and Time Zones

All times are in EDT time to prevent confusion due to time zone crossing. See the AVN21 flight status page for this flight to view local times or setup timezone preferences in your user account.

Time Position Orientation Groundspeed Altitude Reporting Facility
EDT Latitude Longitude Course Direction KTS MPH feet Rate Location/Type
05:41AM -27.3855 153.1281 25° Northeast 160 184  Level FlightAware ADS-B (EKCH / CPH)
05:42AM -27.3723 153.1353 26° Northeast 163 188 500 1,800 Climbing FlightAware ADS-B (EKCH / CPH)
05:42AM -27.3660 153.1393 34° Northeast 3,100 2,100 Climbing Aus ATC (Calculated)
05:42AM -27.3593 153.1444 26° Northeast 162 186 1,200 -2,340 Descending FlightAware ADS-B (EKCH / CPH)
05:42AM -27.3478 153.1565 43° Northeast 178 205 1,600 1,500 Climbing FlightAware ADS-B (EKCH / CPH)
05:43AM -27.3351 153.1701 43° Northeast 193 222 2,200 1,740 Climbing FlightAware ADS-B (EKCH / CPH)
05:43AM -27.3210 153.1853 44° Northeast 206 237 2,800 1,920 Climbing FlightAware ADS-B (EKCH / CPH)
05:43AM -27.3164 153.1934 57° Northeast 211 243 3,200 1,560 Climbing FlightAware ADS-B (EKCH / CPH)
05:43AM -27.3089 153.2158 69° East 233 268 3,600 1,200 Climbing FlightAware ADS-B (EKCH / CPH)
05:44AM -27.3024 153.2398 73° East 258 297 4,000 1,200 Climbing FlightAware ADS-B (EKCH / CPH)
05:44AM -27.2945 153.2676 72° East 285 328 4,400 1,440 Climbing FlightAware ADS-B (EKCH / CPH)
05:44AM -27.2858 153.2974 72° East 302 348 5,000 2,100 Climbing FlightAware ADS-B (EKCH / CPH)
05:45AM -27.2778 153.3253 72° East 307 353 5,800 2,400 Climbing FlightAware ADS-B (EKCH / CPH)
05:45AM -27.2686 153.3585 73° East 311 358 6,600 2,160 Climbing FlightAware ADS-B (EKCH / CPH)
05:45AM -27.2594 153.3912 72° East 322 371 7,300 2,160 Climbing FlightAware ADS-B (EKCH / CPH)
05:46AM -27.2502 153.4229 72° East 330 380 8,100 2,520 Climbing FlightAware ADS-B (EKCH / CPH)
05:46AM -27.2406 153.4566 72° East 335 386 9,000 2,640 Climbing FlightAware ADS-B (EKCH / CPH)
05:46AM -27.2364 153.4716 72° East 333 383 9,400 2,520 Climbing FlightAware ADS-B
05:47AM -27.2224 153.5217 73° East 345 397 10,700 2,640 Climbing FlightAware ADS-B (EKCH / CPH)
05:47AM -27.2074 153.5750 73° East 355 409 12,100 2,760 Climbing FlightAware ADS-B (EKCH / CPH)
05:48AM -27.1922 153.6289 72° East 363 418 13,500 2,700 Climbing FlightAware ADS-B (EKCH / CPH)
05:48AM -27.1861 153.6470 69° East 364 419 13,900 2,700 Climbing FlightAware ADS-B
05:48AM -27.1792 153.6641 65° Northeast 370 426 14,400 3,000 Climbing FlightAware ADS-B (EKCH / CPH)
05:48AM -27.1710 153.6808 61° Northeast 368 423 14,900 3,000 Climbing FlightAware ADS-B
05:48AM -27.1619 153.6968 57° Northeast 368 423 15,400 3,000 Climbing FlightAware ADS-B
05:49AM -27.1330 153.7454 56° Northeast 378 435 16,900 2,880 Climbing FlightAware ADS-B (EKCH / CPH)
05:49AM -27.1035 153.7951 56° Northeast 383 441 18,300 2,700 Climbing FlightAware ADS-B
05:50AM -27.0739 153.8449 56° Northeast 391 450 19,600 2,340 Climbing FlightAware ADS-B (EKCH / CPH)
05:50AM -27.0659 153.8582 56° Northeast 389 448 19,800 1,920 Climbing FlightAware ADS-B
05:51AM -27.0341 153.9113 56° Northeast 407 468 20,900 2,100 Climbing FlightAware ADS-B (EKCH / CPH)
05:51AM -27.0003 153.9679 56° Northeast 416 479 22,000 2,160 Climbing FlightAware ADS-B (EKCH / CPH)
05:51AM -26.9948 153.9771 56° Northeast 413 475 22,200 2,100 Climbing FlightAware ADS-B
05:52AM -26.9585 154.0378 56° Northeast 425 489 23,400 2,040 Climbing FlightAware ADS-B (EKCH / CPH)
05:52AM -26.9243 154.0950 56° Northeast 429 494 24,400 1,860 Climbing FlightAware ADS-B (EKCH / CPH)
05:53AM -26.8905 154.1513 56° Northeast 436 502 25,300 1,740 Climbing FlightAware ADS-B (EKCH / CPH)
05:53AM -26.8575 154.2064 56° Northeast 443 510 26,200 1,680 Climbing FlightAware ADS-B (EKCH / CPH)
05:54AM -26.8099 154.2853 56° Northeast 452 520 27,300 1,440 Climbing FlightAware ADS-B (EKCH / CPH)
05:54AM -26.7747 154.3439 56° Northeast 463 533 27,900 1,380 Climbing FlightAware ADS-B (EKCH / CPH)
05:55AM -26.7273 154.4222 56° Northeast 468 539 28,900 1,560 Climbing FlightAware ADS-B (EKCH / CPH)
05:56AM -26.6911 154.4822 56° Northeast 471 542 29,700 1,500 Climbing FlightAware ADS-B (EKCH / CPH)
05:56AM -26.6533 154.5449 56° Northeast 473 544 30,400 1,380 Climbing FlightAware ADS-B (EKCH / CPH)
05:57AM -26.6212 154.5981 56° Northeast 475 547 31,100 1,560 Climbing FlightAware ADS-B (EKCH / CPH)
05:57AM -26.5805 154.6656 56° Northeast 472 543 32,000 1,560 Climbing FlightAware ADS-B (EKCH / CPH)
05:58AM -26.5431 154.7276 56° Northeast 474 545 32,700 1,200 Climbing FlightAware ADS-B (EKCH / CPH)
05:58AM -26.4947 154.8069 56° Northeast 480 552 33,400 1,020 Climbing FlightAware ADS-B (EKCH / CPH)
05:59AM -26.4557 154.8704 56° Northeast 484 557 33,900 900 Climbing FlightAware ADS-B (EKCH / CPH)
05:59AM -26.4058 154.9519 56° Northeast 489 563 34,500 900 Climbing FlightAware ADS-B (EKCH / CPH)
06:00AM -26.3540 155.0370 56° Northeast 495 570 35,100 900 Climbing FlightAware ADS-B (EKCH / CPH)
06:01AM -26.3154 155.1000 56° Northeast 497 572 35,600 1,080 Climbing FlightAware ADS-B (EKCH / CPH)
06:01AM -26.2778 155.1615 56° Northeast 494 568 36,200 1,200 Climbing FlightAware ADS-B (EKCH / CPH)
06:02AM -26.2381 155.2260 56° Northeast 492 566 36,800 780 Climbing FlightAware ADS-B (EKCH / CPH)
06:02AM -26.2004 155.2875 56° Northeast 489 563 37,000 180 Climbing FlightAware ADS-B (EKCH / CPH)
06:03AM -26.1615 155.3506 56° Northeast 488 562 37,000  Level FlightAware ADS-B (EKCH / CPH)
06:03AM -26.1234 155.4125 56° Northeast 493 567 37,000  Level FlightAware ADS-B (EKCH / CPH)
06:04AM -26.0839 155.4761 55° Northeast 500 575 37,000  Level FlightAware ADS-B (EKCH / CPH)
06:04AM -26.0462 155.5365 55° Northeast 503 579 37,000  Level FlightAware ADS-B (EKCH / CPH)
06:05AM -26.0094 155.5955 55° Northeast 503 579 37,000  Level FlightAware ADS-B (EKCH / CPH)
06:05AM -25.9768 155.6484 56° Northeast 506 582 37,000 420 Level FlightAware ADS-B (EKCH / CPH)
06:06AM -25.9185 155.7446 56° Northeast 502 578 37,500 660 Climbing Aus ATC (RADAR)
06:06AM -25.8850 155.7989 56° Northeast 507 583 37,700 -600 Climbing Aus ATC (RADAR)
06:06AM -25.8870 155.7910 56° Northeast 508 585 37,200 -720 Descending FlightAware
06:07AM -25.8450 155.8590 56° Northeast 508 585 37,200 960 Level FlightAware
06:07AM -25.8018 155.9298 56° Northeast 517 595 38,100 1,320 Climbing Aus ATC (RADAR)
06:07AM -25.7763 155.9709 56° Northeast 530 610 38,000 -120 Descending FlightAware ADS-B (EKCH / CPH)
06:08AM -25.7140 156.0690 56° Northeast 530 610 38,000 840 Level FlightAware
06:08AM -25.6979 156.0979 56° Northeast 524 603 38,800 2,580 Climbing Aus ATC (RADAR)
06:09AM -25.6800 156.1279 57° Northeast 533 613 38,700 420 Descending FlightAware ADS-B (EKCH / CPH)
06:09AM -25.6108 156.2474 57° Northeast 523 602 39,300  Climbing Aus ATC (RADAR)
06:10AM -25.6210 156.2290 57° Northeast 533 613 38,700 -960 Descending FlightAware
06:10AM -25.5800 156.2990 57° Northeast 533 613 38,700 960 Level FlightAware
06:10AM -25.5588 156.3389 57° Northeast 519 597 39,300  Climbing Aus ATC (RADAR)
06:11AM -25.5250 156.3930 57° Northeast 533 613 38,700 -360 Descending FlightAware
06:11AM -25.4872 156.4650 57° Northeast 521 600 39,000  Climbing Aus ATC (RADAR)
06:12AM -25.4760 156.4770 57° Northeast 533 613 38,700 -300 Descending FlightAware
06:12AM -25.4350 156.5470 57° Northeast 533 613 38,700  Level FlightAware
06:13AM -25.3930 156.6170 56° Northeast 533 613 38,700  Level FlightAware
06:13AM -25.3520 156.6870 57° Northeast 533 613 38,700  Level FlightAware
06:14AM -25.3100 156.7590 57° Northeast 533 613 38,700  Level FlightAware
06:15AM -25.2690 156.8290 57° Northeast 533 613 38,700  Level FlightAware
06:15AM -25.2140 156.9220 57° Northeast 533 613 38,700  Level FlightAware
06:16AM -25.1870 156.9690 58° Northeast 533 613 38,700  Level FlightAware
06:16AM -25.1450 157.0410 57° Northeast 533 613 38,700 180 Level FlightAware
06:17AM -24.9783 157.3110 57° Northeast 510 587 39,000  Climbing Aus ATC (RADAR)
06:18AM -25.0600 157.1840 57° Northeast 533 613 38,700 -300 Descending FlightAware
06:19AM -25.0050 157.2770 57° Northeast 533 613 38,700  Level FlightAware
06:20AM -24.7707 157.6582 235° Southwest 38,000 -480 Descending Aus ATC (Calculated)
06:21AM -24.8629 157.5139 57° Northeast  Level FlightAware Approximate
06:21AM -24.7004 157.7751 56° Northeast 38,000  Level Aus ATC (Calculated)
06:23AM -24.5853 157.9660 56° Northeast  Level FlightAware Approximate
06:23AM -24.5354 158.0486 56° Northeast 38,000  Level Aus ATC (Calculated)
06:25AM -24.4200 158.2390 56° Northeast  Level FlightAware Approximate
06:26AM -24.3484 158.3565 56° Northeast  Level FlightAware Approximate
06:27AM -24.2768 158.4740 56° Northeast  Level FlightAware Approximate
06:28AM -24.2052 158.5913 56° Northeast  Level FlightAware Approximate
06:29AM -24.1334 158.7084 56° Northeast  Level FlightAware Approximate
06:30AM -24.0615 158.8255 56° Northeast  Level FlightAware Approximate
06:30AM -23.9747 158.9665 56° Northeast 38,000  Level Aus ATC (Calculated)
06:32AM -23.8401 159.1843 56° Northeast  Level FlightAware Approximate
06:33AM -23.7679 159.3008 56° Northeast  Level FlightAware Approximate
06:34AM -23.6956 159.4172 56° Northeast  Level FlightAware Approximate
06:34AM -23.6562 159.4790 57° Northeast 38,000  Level Aus ATC (Calculated)
06:35AM -23.5859 159.5968 57° Northeast  Level FlightAware Approximate
06:36AM -23.6562 159.4790 237° Southwest  Level FlightAware Approximate
06:37AM -23.5860 159.5968 57° Northeast  Level FlightAware Approximate
06:37AM -23.4111 159.8698 235° Southwest 38,000  Level Aus ATC (Calculated)
06:39AM -23.5451 159.6575 235° Southwest  Level FlightAware Approximate
06:40AM -23.5732 159.6133 56° Northeast  Level FlightAware Approximate
06:41AM -23.5010 159.7283 56° Northeast  Level FlightAware Approximate
06:42AM -23.4288 159.8432 56° Northeast  Level FlightAware Approximate
06:43AM -23.3564 159.9579 56° Northeast  Level FlightAware Approximate
06:43AM -22.8462 160.7594 55° Northeast 38,000  Level Aus ATC (Calculated)
06:45AM -22.7343 160.9338 55° Northeast  Level FlightAware Approximate
06:46AM -22.6612 161.0474 55° Northeast  Level FlightAware Approximate
06:47AM -22.5881 161.1609 55° Northeast  Level FlightAware Approximate
06:47AM -22.5282 161.2535 55° Northeast 38,000  Level Aus ATC (Calculated)
06:48AM -22.4549 161.3667 55° Northeast  Level FlightAware Approximate
06:49AM -22.3815 161.4799 55° Northeast  Level FlightAware Approximate
06:50AM -22.3081 161.5929 55° Northeast  Level FlightAware Approximate
06:51AM -22.2346 161.7058 55° Northeast  Level FlightAware Approximate
06:52AM -22.1609 161.8186 55° Northeast  Level FlightAware Approximate
06:53AM -22.0872 161.9312 55° Northeast  Level FlightAware Approximate
06:54AM -22.0135 162.0438 55° Northeast  Level FlightAware Approximate
06:55AM -21.9396 162.1562 55° Northeast  Level FlightAware Approximate
06:56AM -21.8657 162.2685 55° Northeast  Level FlightAware Approximate
06:57AM -21.7917 162.3807 55° Northeast  Level FlightAware Approximate
06:57AM -21.6331 162.6203 54° Northeast 38,000  Level Aus ATC (Calculated)
06:58AM -21.5589 162.7321 54° Northeast  Level FlightAware Approximate
06:59AM -21.4846 162.8439 54° Northeast  Level FlightAware Approximate
07:00AM -21.4102 162.9555 54° Northeast  Level FlightAware Approximate
07:01AM -21.3357 163.0670 54° Northeast  Level FlightAware Approximate
07:02AM -21.4102 162.9555 234° Southwest  Level FlightAware Approximate
07:03AM -21.3357 163.0670 54° Northeast  Level FlightAware Approximate
07:04AM -21.4102 162.9555 234° Southwest  Level FlightAware Approximate
07:05AM -21.3357 163.0670 54° Northeast  Level FlightAware Approximate
07:06AM -21.4102 162.9555 234° Southwest  Level FlightAware Approximate
07:07AM -21.3357 163.0670 54° Northeast  Level FlightAware Approximate
07:08AM -21.4102 162.9555 234° Southwest  Level FlightAware Approximate
07:09AM -21.3357 163.0670 54° Northeast  Level FlightAware Approximate
07:10AM -21.4102 162.9555 234° Southwest  Level FlightAware Approximate
07:11AM -21.3333 163.0696 54° Northeast  Level FlightAware Approximate
07:12AM -21.2580 163.1804 54° Northeast  Level FlightAware Approximate
07:13AM -21.1826 163.2911 54° Northeast  Level FlightAware Approximate
07:14AM -21.1072 163.4017 54° Northeast  Level FlightAware Approximate
07:15AM -21.0317 163.5122 54° Northeast  Level FlightAware Approximate
07:16AM -20.9562 163.6225 54° Northeast  Level FlightAware Approximate
07:17AM -20.8805 163.7328 54° Northeast  Level FlightAware Approximate
07:18AM -20.8048 163.8429 54° Northeast  Level FlightAware Approximate
07:19AM -20.7290 163.9529 54° Northeast  Level FlightAware Approximate
07:20AM -20.6532 164.0628 54° Northeast  Level FlightAware Approximate
07:21AM -20.5772 164.1726 54° Northeast  Level FlightAware Approximate
07:22AM -20.5013 164.2823 54° Northeast  Level FlightAware Approximate
07:23AM -20.4252 164.3919 53° Northeast  Level FlightAware Approximate
07:24AM -20.3491 164.5013 53° Northeast  Level FlightAware Approximate
07:25AM -20.2729 164.6107 53° Northeast  Level FlightAware Approximate
07:26AM -20.1966 164.7200 53° Northeast  Level FlightAware Approximate
07:27AM -20.1203 164.8291 53° Northeast  Level FlightAware Approximate
07:28AM -20.0439 164.9382 53° Northeast  Level FlightAware Approximate
07:29AM -19.9675 165.0471 53° Northeast  Level FlightAware Approximate
07:30AM -19.8909 165.1559 53° Northeast  Level FlightAware Approximate
07:31AM -19.8144 165.2646 53° Northeast  Level FlightAware Approximate
07:32AM -19.7377 165.3733 53° Northeast  Level FlightAware Approximate
07:33AM -19.6610 165.4818 53° Northeast  Level FlightAware Approximate
07:34AM -19.5842 165.5902 53° Northeast  Level FlightAware Approximate
07:35AM -19.5073 165.6985 53° Northeast  Level FlightAware Approximate
07:36AM -19.4304 165.8067 53° Northeast  Level FlightAware Approximate
07:37AM -19.3534 165.9148 53° Northeast  Level FlightAware Approximate
07:38AM -19.2764 166.0228 53° Northeast  Level FlightAware Approximate
07:39AM -19.1993 166.1307 53° Northeast  Level FlightAware Approximate
07:40AM -19.1221 166.2385 53° Northeast  Level FlightAware Approximate
07:41AM -19.0449 166.3462 53° Northeast  Level FlightAware Approximate
07:42AM -18.9676 166.4538 53° Northeast  Level FlightAware Approximate
07:43AM -18.8902 166.5613 53° Northeast  Level FlightAware Approximate
07:44AM -18.8128 166.6687 53° Northeast  Level FlightAware Approximate
07:45AM -18.7353 166.7760 53° Northeast  Level FlightAware Approximate
07:46AM -18.6578 166.8832 53° Northeast  Level FlightAware Approximate
07:47AM -18.5802 166.9903 53° Northeast  Level FlightAware Approximate
07:48AM -18.5025 167.0973 53° Northeast  Level FlightAware Approximate
07:49AM -18.4248 167.2042 53° Northeast  Level FlightAware Approximate
07:50AM -18.3470 167.3110 53° Northeast  Level FlightAware Approximate
07:51AM -18.2692 167.4177 52° Northeast  Level FlightAware Approximate
07:52AM -18.1913 167.5244 52° Northeast  Level FlightAware Approximate
07:53AM -18.1133 167.6309 52° Northeast  Level FlightAware Approximate
07:54AM -18.0353 167.7373 52° Northeast  Level FlightAware Approximate
07:55AM -17.9572 167.8436 52° Northeast  Level FlightAware Approximate
07:56AM -17.8791 167.9499 52° Northeast  Level FlightAware Approximate
07:57AM -17.8009 168.0560 52° Northeast  Level FlightAware Approximate
07:58AM -17.7226 168.1621 52° Northeast  Level FlightAware Approximate
07:59AM -17.6621 168.2439 54° Northeast  Level FlightAware Approximate
08:00AM -17.6993 168.3198 54° Northeast  Level Estimated
08:01AM -17.6993 168.3198 54° Northeast  Level Estimated
08:02AM -17.6993 168.3198 54° Northeast  Level Estimated
08:03AM -17.6993 168.3198 54° Northeast  Level Estimated
08:04AM -17.6993 168.3198 54° Northeast  Level Estimated
08:05AM -17.6993 168.3198 54° Northeast  Level Estimated
08:06AM -17.6993 168.3198 54° Northeast  Level Estimated